Orlando, Florida
Traffic Map
Current Weather Conditions
Orlando, Florida
Clear
Clear
76°
Feels Like: 76°
Wind Chill: 76° Ceiling: Unl
Heat Index: 76° Visibility: 10mi
Dew Point: 59° Wind: 3mph
Humidity: 56% Direction: ° ()
Pressure: 30.03in Gusts: 0mph
Raw Report DataKORL 071753Z VRB03KT 10SM CLR 24/15 A3003 RMK AO2 SLP172 T02440150 10250 20167 58015
Traffic Incident Summary
Active as of:
Severity:
Category:
InformationThere was an issue retrieving the traffic information for this location. Please try a different location or try again shortly.
Advertisements
Track Severe Weather on mobile